Time;durP1;ratioP1;P1;durP2;ratioP2;P2;SDS_P1;SDS_P2;PMS_P1;PMS_P2;Temp;Humidity;BMP_temperature;BMP_pressure;BME280_temperature;BME280_humidity;BME280_pressure;Samples;Min_cycle;Max_cycle;Signal;HPM_P1;HPM_P2
2021/08/13 00:00:48;;;;;;;12.68;6.85;;;;;;;25.87;53.49;100274.91;5082965;28;20036;-73
2021/08/13 00:03:14;;;;;;;10.90;7.03;;;;;;;25.65;53.69;100269.44;5082472;28;20032;-73
2021/08/13 00:05:40;;;;;;;9.65;6.43;;;;;;;25.33;54.58;100279.19;5082704;28;20047;-73
2021/08/13 00:08:06;;;;;;;8.63;7.05;;;;;;;25.28;54.52;100274.50;5082827;28;20032;-73
2021/08/13 00:10:32;;;;;;;13.25;7.80;;;;;;;25.31;54.67;100271.31;5082501;28;20282;-72
2021/08/13 00:12:58;;;;;;;14.68;7.85;;;;;;;25.24;54.90;100280.66;5082576;28;20032;-72
2021/08/13 00:15:24;;;;;;;12.10;7.30;;;;;;;25.35;53.88;100286.00;5082195;28;20041;-72
2021/08/13 00:17:50;;;;;;;9.77;7.35;;;;;;;25.39;54.17;100294.47;5082057;28;20341;-72
2021/08/13 00:20:15;;;;;;;10.45;7.30;;;;;;;25.48;54.19;100297.59;5082433;28;20068;-72
2021/08/13 00:22:40;;;;;;;10.10;7.22;;;;;;;25.56;53.30;100289.03;5082016;28;20069;-73
2021/08/13 00:25:06;;;;;;;12.68;7.70;;;;;;;25.58;53.35;100292.34;5082536;28;20037;-73
2021/08/13 00:27:31;;;;;;;10.82;7.78;;;;;;;25.61;53.16;100287.22;5068502;28;20044;-73
2021/08/13 00:29:57;;;;;;;13.77;8.27;;;;;;;25.65;53.18;100285.69;5073255;28;20249;-73
2021/08/13 00:32:22;;;;;;;13.18;7.65;;;;;;;25.65;53.61;100280.28;5067691;28;20033;-73
2021/08/13 00:34:48;;;;;;;11.40;7.53;;;;;;;25.65;53.21;100276.72;5072145;28;20039;-73
2021/08/13 00:37:13;;;;;;;9.02;6.93;;;;;;;25.67;53.45;100280.03;5073232;28;20036;-73
2021/08/13 00:39:39;;;;;;;13.48;7.70;;;;;;;25.67;53.79;100293.59;5068027;28;20029;-73
2021/08/13 00:42:04;;;;;;;9.00;7.18;;;;;;;25.51;53.94;100259.97;5069985;28;20229;-73
2021/08/13 00:44:30;;;;;;;12.00;7.63;;;;;;;25.71;54.00;100281.19;5067534;28;20032;-73
2021/08/13 00:46:56;;;;;;;13.25;7.30;;;;;;;25.78;53.61;100276.41;5076727;28;20028;-73
2021/08/13 00:49:22;;;;;;;11.15;7.50;;;;;;;25.77;53.67;100280.19;5066789;28;20481;-73
2021/08/13 00:51:48;;;;;;;12.80;7.30;;;;;;;25.73;53.76;100281.75;5065240;28;20211;-73
2021/08/13 00:54:13;;;;;;;12.32;7.88;;;;;;;25.54;54.46;100286.59;5060391;28;20036;-73
2021/08/13 00:56:39;;;;;;;11.05;7.38;;;;;;;25.61;54.31;100283.69;5069435;28;20037;-73
2021/08/13 00:59:07;;;;;;;14.45;7.30;;;;;;;25.60;54.22;100282.88;5070941;28;20060;-73
2021/08/13 01:01:32;;;;;;;14.32;8.10;;;;;;;25.40;54.71;100285.28;5069779;28;20028;-72
2021/08/13 01:03:58;;;;;;;10.82;7.90;;;;;;;25.10;55.39;100280.97;5066335;28;20029;-72
2021/08/13 01:06:23;;;;;;;13.82;8.38;;;;;;;24.84;55.81;100289.66;5061565;28;20086;-72
2021/08/13 01:08:48;;;;;;;11.35;8.13;;;;;;;25.01;55.62;100278.91;5073270;28;20037;-72
2021/08/13 01:11:42;;;;;;;11.27;8.30;;;;;;;24.81;56.26;100290.13;5066070;28;20266;-73
2021/08/13 01:14:36;;;;;;;12.68;8.25;;;;;;;24.70;56.86;100286.41;5069369;28;20047;-73
2021/08/13 01:17:06;;;;;;;16.50;8.38;;;;;;;24.90;56.36;100285.16;5072973;28;20257;-73
2021/08/13 01:19:46;;;;;;;16.02;8.70;;;;;;;24.88;56.33;100282.69;5069375;28;20036;-72
2021/08/13 01:22:19;;;;;;;14.20;8.07;;;;;;;24.84;56.34;100292.34;5062653;28;20044;-73
2021/08/13 01:24:47;;;;;;;12.70;8.77;;;;;;;24.90;56.12;100295.97;5080747;28;20036;-73
2021/08/13 01:27:23;;;;;;;11.60;8.60;;;;;;;24.69;56.94;100295.59;5077488;28;20145;-73
2021/08/13 01:29:57;;;;;;;11.43;8.48;;;;;;;24.70;56.76;100301.81;5069690;28;20044;-73
2021/08/13 01:32:26;;;;;;;;;;;;;;;24.58;57.32;100301.88;5077380;28;20214;-73
2021/08/13 01:34:57;;;;;;;12.38;8.05;;;;;;;24.29;58.24;100300.19;5065599;28;19973;-73
2021/08/13 01:37:23;;;;;;;11.43;7.90;;;;;;;24.52;57.30;100303.66;5072732;28;20028;-73
2021/08/13 01:39:51;;;;;;;12.25;8.40;;;;;;;24.53;57.17;100309.88;5070574;28;20047;-73
2021/08/13 01:42:17;;;;;;;13.23;8.15;;;;;;;24.65;56.75;100307.97;5069885;28;20035;-73
2021/08/13 01:44:43;;;;;;;10.85;8.18;;;;;;;24.49;57.08;100306.84;5068568;28;20066;-73
2021/08/13 01:47:08;;;;;;;12.25;8.70;;;;;;;24.47;57.11;100311.66;5069927;28;20035;-73
2021/08/13 01:49:35;;;;;;;14.90;8.18;;;;;;;24.52;56.91;100313.66;5072399;28;20064;-73
2021/08/13 01:52:01;;;;;;;14.65;8.57;;;;;;;24.40;57.25;100327.22;5070928;28;20666;-72
2021/08/13 01:54:27;;;;;;;12.13;8.90;;;;;;;24.36;57.38;100319.81;5066722;28;20275;-72
2021/08/13 01:56:54;;;;;;;13.70;8.05;;;;;;;24.41;57.19;100325.34;5064493;28;20078;-72
2021/08/13 01:59:21;;;;;;;10.43;8.00;;;;;;;24.41;57.12;100319.94;5070643;28;20032;-72
2021/08/13 02:01:47;;;;;;;13.23;8.45;;;;;;;24.52;56.99;100322.59;5071904;28;20070;-72
2021/08/13 02:04:20;;;;;;;13.15;8.60;;;;;;;24.54;56.65;100322.38;5067884;28;20041;-73
2021/08/13 02:06:47;;;;;;;15.60;8.30;;;;;;;24.43;57.06;100324.03;5071904;28;20298;-73
2021/08/13 02:09:15;;;;;;;9.57;8.25;;;;;;;24.47;57.01;100330.63;5073258;28;20100;-73
2021/08/13 02:11:42;;;;;;;11.60;8.07;;;;;;;24.24;57.77;100336.03;5065814;28;20032;-73
2021/08/13 02:14:08;;;;;;;16.02;8.98;;;;;;;24.36;57.52;100336.06;5068085;28;20078;-73
2021/08/13 02:16:35;;;;;;;13.05;8.45;;;;;;;24.34;57.88;100335.47;5067065;28;20037;-72
2021/08/13 02:19:20;;;;;;;14.52;8.38;;;;;;;24.40;57.79;100334.53;5072908;28;20044;-73
2021/08/13 02:21:48;;;;;;;12.70;8.77;;;;;;;24.61;56.99;100333.06;5074808;28;20341;-72
2021/08/13 02:24:17;;;;;;;11.82;9.20;;;;;;;24.58;57.09;100339.78;5073957;28;20040;-73
2021/08/13 02:26:46;;;;;;;12.52;8.77;;;;;;;24.44;57.76;100338.41;5071453;28;20052;-73
2021/08/13 02:29:11;;;;;;;16.85;8.65;;;;;;;24.12;58.69;100336.06;5074920;28;20060;-73
2021/08/13 02:31:37;;;;;;;14.25;8.35;;;;;;;24.17;58.34;100338.06;5071713;28;20063;-73
2021/08/13 02:34:02;;;;;;;16.30;8.98;;;;;;;24.27;58.14;100342.91;5074076;28;20082;-73
2021/08/13 02:36:41;;;;;;;11.75;8.50;;;;;;;24.31;58.03;100349.47;5068545;28;20059;-73
2021/08/13 02:39:13;;;;;;;14.13;8.23;;;;;;;24.51;57.49;100345.31;5073692;28;20029;-73
2021/08/13 02:41:42;;;;;;;13.82;9.10;;;;;;;24.55;57.27;100351.09;5065327;28;20385;-73
2021/08/13 02:44:10;;;;;;;14.13;8.77;;;;;;;24.61;56.99;100347.41;5078992;28;20060;-72
2021/08/13 02:46:42;;;;;;;13.38;8.30;;;;;;;24.61;56.79;100343.88;5082702;28;20078;-72
2021/08/13 02:49:10;;;;;;;10.27;7.45;;;;;;;24.69;56.38;100348.94;5074573;28;20028;-72
2021/08/13 02:51:40;;;;;;;12.50;8.07;;;;;;;24.56;56.58;100350.03;5066601;28;20208;-72
2021/08/13 02:54:07;;;;;;;14.23;8.65;;;;;;;24.55;57.04;100350.25;5066643;28;20032;-72
2021/08/13 02:56:37;;;;;;;16.52;8.43;;;;;;;24.42;57.60;100345.94;5071866;28;20082;-72
2021/08/13 02:59:07;;;;;;;25.40;8.63;;;;;;;24.52;57.16;100355.09;5067607;28;20036;-73
2021/08/13 03:01:38;;;;;;;19.75;9.82;;;;;;;24.38;57.08;100348.28;5068397;28;20035;-72
2021/08/13 03:04:08;;;;;;;20.42;8.80;;;;;;;24.39;57.00;100349.94;5066840;28;20032;-73
2021/08/13 03:06:38;;;;;;;15.20;8.27;;;;;;;24.29;56.97;100357.84;5064419;28;20032;-73
2021/08/13 03:09:07;;;;;;;12.38;8.57;;;;;;;24.36;56.83;100357.72;5077165;28;20048;-73
2021/08/13 03:11:33;;;;;;;13.40;8.60;;;;;;;24.28;56.43;100350.78;5072104;28;20045;-72
2021/08/13 03:14:01;;;;;;;16.73;9.43;;;;;;;24.25;56.88;100356.63;5068414;28;20051;-73
2021/08/13 03:16:26;;;;;;;11.23;8.48;;;;;;;24.10;57.37;100357.13;5069705;28;20028;-72
2021/08/13 03:18:52;;;;;;;13.40;8.85;;;;;;;24.16;57.28;100361.59;5073469;28;20349;-73
2021/08/13 03:21:18;;;;;;;13.70;9.05;;;;;;;24.20;56.45;100354.63;5072474;28;20025;-73
2021/08/13 03:23:44;;;;;;;16.77;9.05;;;;;;;24.19;57.24;100371.09;5076339;28;20252;-73
2021/08/13 03:26:10;;;;;;;14.50;9.27;;;;;;;24.16;57.70;100367.00;5070053;28;20040;-73
2021/08/13 03:28:36;;;;;;;15.65;10.32;;;;;;;24.20;57.65;100370.03;5077037;28;20297;-73
2021/08/13 03:31:02;;;;;;;20.13;10.48;;;;;;;24.09;58.35;100366.28;5070139;28;20063;-73
2021/08/13 03:33:28;;;;;;;19.90;10.50;;;;;;;24.14;58.15;100365.59;5067857;28;20148;-72
2021/08/13 03:35:55;;;;;;;27.10;11.68;;;;;;;24.11;58.08;100368.75;5077707;28;20054;-72
2021/08/13 03:38:20;;;;;;;27.33;11.35;;;;;;;24.10;58.26;100361.69;5069765;28;20029;-72
2021/08/13 03:40:45;;;;;;;23.13;10.57;;;;;;;24.19;57.98;100365.69;5072910;28;20036;-72
2021/08/13 03:43:11;;;;;;;28.13;12.30;;;;;;;24.17;58.13;100365.94;5077849;28;20016;-72
2021/08/13 03:45:36;;;;;;;23.00;11.77;;;;;;;24.04;58.69;100368.88;5074769;28;20031;-73
2021/08/13 03:48:02;;;;;;;23.08;10.88;;;;;;;24.11;58.51;100366.06;5068173;28;20336;-73
2021/08/13 03:50:27;;;;;;;22.58;10.32;;;;;;;24.10;58.67;100365.22;5068248;28;20051;-73
2021/08/13 03:52:53;;;;;;;29.85;11.30;;;;;;;24.15;58.86;100359.09;5069091;28;20314;-73
2021/08/13 03:55:18;;;;;;;20.00;10.25;;;;;;;24.27;58.18;100359.97;5072381;28;20307;-73
2021/08/13 03:57:44;;;;;;;19.83;10.80;;;;;;;24.34;57.99;100362.53;5065287;28;20234;-73
2021/08/13 04:00:10;;;;;;;19.30;10.73;;;;;;;24.37;58.03;100365.59;5067411;28;20338;-73
2021/08/13 04:02:36;;;;;;;20.83;11.05;;;;;;;24.34;58.67;100374.19;5075578;28;20025;-73
2021/08/13 04:05:02;;;;;;;19.25;10.57;;;;;;;24.48;58.26;100374.75;5075692;28;20526;-73
2021/08/13 04:07:28;;;;;;;20.92;11.05;;;;;;;24.43;58.56;100377.34;5071231;28;20099;-73
2021/08/13 04:09:53;;;;;;;23.15;10.70;;;;;;;24.50;58.39;100378.06;5073111;28;20043;-73
2021/08/13 04:12:19;;;;;;;26.13;10.68;;;;;;;24.45;58.50;100373.34;5065979;28;20021;-73
2021/08/13 04:14:45;;;;;;;18.23;11.00;;;;;;;24.46;58.53;100379.59;5064451;28;20048;-73
2021/08/13 04:17:10;;;;;;;14.15;9.88;;;;;;;24.50;58.42;100384.28;5064834;28;20029;-73
2021/08/13 04:19:36;;;;;;;34.95;19.98;;;;;;;24.57;58.11;100383.34;5064906;28;20032;-73
2021/08/13 04:22:02;;;;;;;19.48;15.20;;;;;;;24.61;58.02;100379.09;5061490;28;20021;-73
2021/08/13 04:24:28;;;;;;;26.67;11.93;;;;;;;24.71;57.45;100384.72;5064402;28;20044;-73
2021/08/13 04:26:54;;;;;;;22.92;11.48;;;;;;;24.60;57.51;100382.84;5065194;28;20032;-72
2021/08/13 04:29:19;;;;;;;21.20;12.18;;;;;;;24.63;58.10;100385.09;5069273;28;20052;-72
2021/08/13 04:31:45;;;;;;;19.02;11.38;;;;;;;24.79;57.49;100387.88;5067508;28;20330;-72
2021/08/13 04:34:10;;;;;;;27.77;11.02;;;;;;;24.89;57.26;100383.72;5077723;28;20322;-72
2021/08/13 04:36:35;;;;;;;16.30;10.50;;;;;;;24.89;57.38;100389.16;5067168;28;20081;-72
2021/08/13 04:39:01;;;;;;;18.27;10.38;;;;;;;24.96;57.29;100387.94;5072962;28;20033;-72
2021/08/13 04:41:26;;;;;;;16.13;11.15;;;;;;;25.11;56.91;100390.19;5074091;28;20040;-73
2021/08/13 04:43:52;;;;;;;21.40;11.40;;;;;;;25.14;56.84;100395.13;5069641;28;20033;-73
2021/08/13 04:46:17;;;;;;;34.45;12.07;;;;;;;25.29;56.17;100394.59;5064687;28;20040;-73
2021/08/13 04:48:42;;;;;;;28.23;11.70;;;;;;;25.24;56.13;100400.72;5071567;28;20032;-73
2021/08/13 04:51:08;;;;;;;21.90;11.43;;;;;;;25.43;55.73;100399.47;5066049;28;20035;-73
2021/08/13 04:53:33;;;;;;;17.55;10.98;;;;;;;25.61;55.25;100403.84;5073695;28;20078;-73
2021/08/13 04:55:59;;;;;;;18.52;11.50;;;;;;;25.42;55.36;100405.94;5064686;28;20324;-73
2021/08/13 04:58:24;;;;;;;16.83;10.20;;;;;;;25.58;54.75;100412.47;5061297;28;20033;-73
2021/08/13 05:00:50;;;;;;;19.20;11.32;;;;;;;25.66;54.64;100405.84;5059927;28;20032;-73
2021/08/13 05:03:15;;;;;;;15.63;11.00;;;;;;;26.00;53.94;100414.81;5073070;28;20020;-73
2021/08/13 05:05:41;;;;;;;16.95;11.50;;;;;;;26.12;52.98;100406.63;5076869;28;20037;-73
2021/08/13 05:08:08;;;;;;;21.88;11.88;;;;;;;26.35;52.61;100411.91;5070418;28;20107;-73
2021/08/13 05:10:33;;;;;;;21.83;11.10;;;;;;;26.63;51.95;100425.31;5070070;28;20051;-73
2021/08/13 05:12:59;;;;;;;17.27;12.07;;;;;;;26.83;51.18;100413.91;5076049;28;20032;-73
2021/08/13 05:15:24;;;;;;;18.00;10.65;;;;;;;27.03;50.29;100416.91;5073447;28;20274;-72
2021/08/13 05:17:50;;;;;;;20.20;11.45;;;;;;;27.24;50.18;100417.16;5073556;28;20035;-72
2021/08/13 05:20:15;;;;;;;17.58;11.80;;;;;;;27.50;49.49;100416.34;5068800;28;20218;-72
2021/08/13 05:22:41;;;;;;;15.98;11.90;;;;;;;27.79;48.59;100422.34;5060364;28;20078;-72
2021/08/13 05:25:09;;;;;;;24.10;11.65;;;;;;;28.10;47.49;100422.63;5061259;28;20028;-72
2021/08/13 05:27:35;;;;;;;22.85;12.32;;;;;;;28.39;46.38;100423.94;5072638;28;20315;-72
2021/08/13 05:30:01;;;;;;;22.50;12.30;;;;;;;28.78;45.39;100421.69;5066803;28;20055;-73
2021/08/13 05:32:27;;;;;;;21.30;11.95;;;;;;;29.06;44.58;100425.09;5071150;28;20373;-73
2021/08/13 05:34:53;;;;;;;20.92;11.93;;;;;;;28.95;45.17;100428.88;5065324;28;20107;-73
2021/08/13 05:37:18;;;;;;;16.40;12.10;;;;;;;28.87;44.76;100430.22;5064728;28;20036;-73
2021/08/13 05:39:44;;;;;;;20.88;12.13;;;;;;;29.04;44.53;100425.38;5065666;28;20047;-73
2021/08/13 05:42:10;;;;;;;20.05;11.30;;;;;;;29.45;43.67;100431.00;5070228;28;20021;-74
2021/08/13 05:44:35;;;;;;;22.38;11.85;;;;;;;29.42;43.12;100426.88;5078759;28;20037;-73
2021/08/13 05:47:01;;;;;;;18.25;11.55;;;;;;;29.67;42.93;100434.31;5068899;28;20282;-73
2021/08/13 05:49:26;;;;;;;21.08;12.30;;;;;;;29.89;42.02;100428.56;5078535;28;20035;-73
2021/08/13 05:51:51;;;;;;;16.60;11.15;;;;;;;29.82;42.46;100431.59;5072746;28;20063;-73
2021/08/13 05:54:17;;;;;;;20.20;10.98;;;;;;;30.09;41.41;100428.59;5068167;28;20289;-73
2021/08/13 05:56:42;;;;;;;16.08;10.88;;;;;;;30.44;40.41;100430.47;5069386;28;20298;-73
2021/08/13 05:59:08;;;;;;;22.15;11.57;;;;;;;30.81;40.17;100434.78;5069063;28;20047;-73
2021/08/13 06:01:33;;;;;;;16.58;10.60;;;;;;;30.91;39.75;100423.78;5263305;22;20045;-75
2021/08/13 06:03:59;;;;;;;17.85;10.63;;;;;;;30.99;39.18;100414.19;5085754;28;20035;-78
2021/08/13 06:06:26;;;;;;;14.93;9.55;;;;;;;30.83;38.15;100407.97;5102489;28;20028;-72
2021/08/13 06:08:52;;;;;;;16.60;9.07;;;;;;;30.81;38.49;100432.03;5105257;28;20028;-78
2021/08/13 06:11:17;;;;;;;16.77;9.30;;;;;;;30.86;38.45;100434.75;5105452;28;20210;-72
2021/08/13 06:13:43;;;;;;;14.50;10.25;;;;;;;30.69;39.16;100426.06;5105480;28;20027;-77
2021/08/13 06:16:08;;;;;;;11.82;8.07;;;;;;;30.61;38.57;100429.38;5105178;28;20074;-75
2021/08/13 06:18:34;;;;;;;10.95;6.82;;;;;;;30.86;38.31;100425.72;5105358;28;20225;-75
2021/08/13 06:20:59;;;;;;;13.75;7.00;;;;;;;30.52;38.67;100434.56;5105337;28;20039;-75
2021/08/13 06:23:25;;;;;;;12.82;8.10;;;;;;;30.39;39.30;100426.94;5105204;28;20210;-75
2021/08/13 06:25:51;;;;;;;15.23;8.98;;;;;;;29.93;40.72;100439.78;5105354;28;20036;-75
2021/08/13 06:28:17;;;;;;;17.80;9.73;;;;;;;30.24;39.94;100444.19;5105132;28;20036;-75
2021/08/13 06:30:42;;;;;;;12.20;8.90;;;;;;;30.60;39.21;100438.69;5105208;28;20081;-75
2021/08/13 06:33:08;;;;;;;11.00;7.97;;;;;;;30.97;39.19;100443.72;5104940;28;20048;-75
2021/08/13 06:35:33;;;;;;;13.27;7.55;;;;;;;30.95;38.31;100437.72;5105203;28;20028;-75
2021/08/13 06:37:59;;;;;;;11.35;7.53;;;;;;;30.86;39.13;100439.41;5086564;28;20047;-75
2021/08/13 06:40:25;;;;;;;11.80;7.32;;;;;;;30.73;38.92;100447.09;5104979;28;20032;-75
2021/08/13 06:42:51;;;;;;;9.18;7.45;;;;;;;30.55;39.24;100430.47;5102813;28;20040;-75
2021/08/13 06:45:19;;;;;;;10.20;7.38;;;;;;;30.70;39.82;100439.47;5089234;28;20276;-75
2021/08/13 06:47:44;;;;;;;16.98;8.00;;;;;;;30.16;41.33;100444.72;5094813;28;20325;-72
2021/08/13 06:50:12;;;;;;;12.60;8.38;;;;;;;29.62;43.35;100428.03;5089122;28;20042;-77
2021/08/13 06:52:37;;;;;;;9.85;7.60;;;;;;;29.81;43.17;100427.22;5085169;28;20028;-71
2021/08/13 06:55:04;;;;;;;11.85;7.85;;;;;;;29.48;43.67;100425.81;5070870;28;20020;-72
2021/08/13 06:57:30;;;;;;;15.35;9.30;;;;;;;29.39;44.14;100438.31;5088258;28;20043;-75
2021/08/13 06:59:55;;;;;;;14.13;8.38;;;;;;;29.50;43.90;100437.28;5070286;28;20028;-75
2021/08/13 07:02:21;;;;;;;14.40;8.45;;;;;;;30.05;43.17;100443.91;5068226;28;20060;-74
2021/08/13 07:04:46;;;;;;;13.05;8.10;;;;;;;30.25;42.30;100445.81;5069052;28;20363;-74
2021/08/13 07:07:13;;;;;;;12.10;7.40;;;;;;;30.59;41.21;100447.97;5068951;28;20044;-75
2021/08/13 07:09:39;;;;;;;11.90;7.63;;;;;;;30.50;41.20;100445.78;5072913;28;20108;-75
2021/08/13 07:12:05;;;;;;;12.20;7.18;;;;;;;30.05;41.55;100435.69;5067577;28;20039;-75
2021/08/13 07:14:31;;;;;;;9.25;7.57;;;;;;;30.11;41.14;100411.94;5063970;28;20025;-75
2021/08/13 07:16:56;;;;;;;10.57;7.72;;;;;;;30.66;41.08;100432.91;5069120;28;20024;-75
2021/08/13 07:19:21;;;;;;;12.80;8.30;;;;;;;30.84;40.51;100436.94;5065596;28;20070;-75
2021/08/13 07:21:47;;;;;;;13.00;8.30;;;;;;;31.01;40.38;100434.69;5066370;28;20036;-75
2021/08/13 07:24:14;;;;;;;24.15;8.85;;;;;;;31.15;39.93;100432.19;5066586;28;20031;-75
2021/08/13 07:26:40;;;;;;;13.57;7.35;;;;;;;31.03;39.66;100426.19;5068323;28;20037;-75
2021/08/13 07:29:06;;;;;;;9.80;6.85;;;;;;;31.12;40.06;100435.47;5066606;28;20029;-72
2021/08/13 07:31:31;;;;;;;7.30;6.20;;;;;;;31.02;38.77;100430.03;5066505;28;20318;-77
2021/08/13 07:33:57;;;;;;;11.07;7.05;;;;;;;31.39;38.99;100427.69;5068370;28;20032;-72
2021/08/13 07:36:25;;;;;;;9.80;7.05;;;;;;;31.35;38.83;100403.94;5068656;28;20252;-72
2021/08/13 07:38:51;;;;;;;11.63;7.30;;;;;;;31.32;38.52;100429.13;5067801;28;20040;-72
2021/08/13 07:41:17;;;;;;;11.93;7.07;;;;;;;30.92;38.93;100413.69;5064832;28;20024;-75
2021/08/13 07:43:42;;;;;;;9.07;6.85;;;;;;;31.40;38.46;100418.38;5068210;28;20241;-75
2021/08/13 07:46:10;;;;;;;14.35;7.07;;;;;;;31.53;38.01;100416.94;5072997;28;20032;-75
2021/08/13 07:48:35;;;;;;;14.57;7.22;;;;;;;30.89;39.12;100427.91;5064158;28;20314;-75
2021/08/13 07:51:01;;;;;;;12.23;7.55;;;;;;;31.13;38.46;100428.88;5076698;28;20079;-75
2021/08/13 07:53:26;;;;;;;10.93;7.38;;;;;;;31.09;39.08;100422.34;5074240;28;20036;-75
2021/08/13 07:55:52;;;;;;;11.18;7.05;;;;;;;31.23;37.41;100425.34;5062163;28;20021;-75
2021/08/13 07:58:17;;;;;;;10.73;7.35;;;;;;;31.15;38.11;100417.69;5065692;28;20028;-74
2021/08/13 08:00:43;;;;;;;7.43;5.75;;;;;;;31.74;36.51;100421.19;5084746;28;20043;-75
2021/08/13 08:03:08;;;;;;;11.85;6.63;;;;;;;31.99;36.01;100422.88;5090747;28;20085;-75
2021/08/13 08:05:34;;;;;;;11.27;7.07;;;;;;;31.69;36.83;100420.38;5085962;28;20025;-75
2021/08/13 08:08:00;;;;;;;12.43;7.32;;;;;;;31.79;36.85;100422.25;5084100;28;20036;-75
2021/08/13 08:10:25;;;;;;;11.50;6.97;;;;;;;32.29;35.56;100421.84;5086226;28;20038;-75
2021/08/13 08:12:51;;;;;;;16.30;7.78;;;;;;;32.00;37.50;100413.56;5094476;28;20028;-73
2021/08/13 08:15:16;;;;;;;11.55;7.38;;;;;;;31.88;36.77;100424.09;5090737;28;20024;-77
2021/08/13 08:17:42;;;;;;;11.32;7.20;;;;;;;31.73;37.36;100424.22;5065324;28;20025;-72
2021/08/13 08:20:09;;;;;;;11.02;7.65;;;;;;;31.15;38.37;100426.72;5083884;28;20040;-77
2021/08/13 08:22:36;;;;;;;8.73;6.97;;;;;;;31.63;38.40;100411.38;5085312;28;20222;-77
2021/08/13 08:25:02;;;;;;;10.20;7.22;;;;;;;31.82;37.83;100413.47;5092786;28;20091;-75
2021/08/13 08:27:27;;;;;;;12.80;7.32;;;;;;;32.26;37.01;100407.91;5086267;28;20038;-75
2021/08/13 08:29:53;;;;;;;11.38;6.93;;;;;;;32.07;37.70;100415.97;5083486;28;20029;-75
2021/08/13 08:32:18;;;;;;;10.95;7.00;;;;;;;32.11;37.89;100402.50;5090185;28;20322;-75
2021/08/13 08:34:44;;;;;;;9.35;7.00;;;;;;;32.07;37.24;100413.22;5096126;28;20031;-75
2021/08/13 08:37:11;;;;;;;10.35;7.50;;;;;;;31.60;37.63;100413.88;5090768;28;20032;-75
2021/08/13 08:39:38;;;;;;;11.05;7.10;;;;;;;32.22;36.77;100410.34;5087135;28;20315;-74
2021/08/13 08:42:11;;;;;;;10.75;7.10;;;;;;;32.13;37.54;100414.00;5071889;28;20028;-74
2021/08/13 08:44:37;;;;;;;9.30;6.47;;;;;;;31.88;37.94;100420.53;5082596;28;20060;-75
2021/08/13 08:47:03;;;;;;;11.80;7.38;;;;;;;32.01;36.47;100419.88;5069085;28;20272;-75
2021/08/13 08:49:30;;;;;;;9.43;7.30;;;;;;;31.94;36.75;100408.41;5084897;28;20097;-74
2021/08/13 08:51:57;;;;;;;9.43;7.25;;;;;;;31.75;36.33;100420.09;5081801;28;20047;-75
2021/08/13 08:54:26;;;;;;;18.25;7.78;;;;;;;32.29;36.80;100410.06;5088823;28;20036;-72
2021/08/13 08:56:52;;;;;;;8.82;7.13;;;;;;;32.41;36.19;100409.66;5083161;28;20313;-72
2021/08/13 08:59:21;;;;;;;16.65;7.05;;;;;;;31.91;36.07;100418.03;5091018;28;20050;-77
2021/08/13 09:01:47;;;;;;;15.10;7.28;;;;;;;31.77;36.61;100402.56;5085271;28;20037;-72
2021/08/13 09:04:13;;;;;;;10.57;7.70;;;;;;;32.11;36.59;100408.00;5092446;28;20028;-77
2021/08/13 09:06:40;;;;;;;11.65;7.35;;;;;;;32.19;36.84;100410.09;5089356;28;20314;-72
2021/08/13 09:09:06;;;;;;;9.18;7.43;;;;;;;31.67;36.64;100404.22;5083484;28;20066;-75
2021/08/13 09:11:32;;;;;;;7.80;6.53;;;;;;;31.71;36.28;100413.53;5082801;28;20032;-75
2021/08/13 09:14:06;;;;;;;11.15;7.28;;;;;;;31.41;37.16;100408.25;5093351;28;20045;-75
2021/08/13 09:16:32;;;;;;;11.38;6.75;;;;;;;31.36;37.41;100389.13;5086734;28;20383;-75
2021/08/13 09:19:01;;;;;;;10.15;7.10;;;;;;;31.43;36.66;100398.66;5081366;28;20036;-75
2021/08/13 09:21:26;;;;;;;11.88;6.45;;;;;;;31.65;35.62;100375.50;5063618;28;20299;-75
2021/08/13 09:23:54;;;;;;;11.00;6.70;;;;;;;31.62;37.00;100401.53;5083185;28;20037;-75
2021/08/13 09:26:22;;;;;;;8.82;6.75;;;;;;;31.57;36.61;100392.53;5082190;28;20031;-75
2021/08/13 09:28:50;;;;;;;9.02;6.90;;;;;;;31.37;37.17;100391.59;5067581;28;20316;-75
2021/08/13 09:31:24;;;;;;;10.93;6.70;;;;;;;31.34;37.06;100388.59;5092136;28;20062;-75
2021/08/13 09:33:52;;;;;;;10.60;6.90;;;;;;;31.32;37.59;100388.88;5086485;28;20055;-75
2021/08/13 09:36:20;;;;;;;10.80;6.85;;;;;;;31.77;36.99;100397.06;5082494;28;20096;-75
2021/08/13 09:38:48;;;;;;;10.52;7.00;;;;;;;31.93;36.79;100384.88;5065432;28;20035;-75
2021/08/13 09:41:18;;;;;;;7.97;6.32;;;;;;;31.68;35.81;100389.44;5076488;28;20025;-72
2021/08/13 09:43:54;;;;;;;11.82;7.30;;;;;;;31.61;36.62;100382.66;5064730;28;20025;-72
2021/08/13 09:46:20;;;;;;;10.23;7.13;;;;;;;31.38;36.46;100352.19;5082044;28;20032;-77
2021/08/13 09:48:45;;;;;;;10.43;6.82;;;;;;;31.59;35.98;100372.00;5083164;28;20364;-77
2021/08/13 09:51:34;;;;;;;8.55;7.10;;;;;;;31.36;36.86;100383.66;5086096;28;20024;-74
2021/08/13 09:54:02;;;;;;;13.65;6.60;;;;;;;31.42;36.75;100371.59;5087918;28;20032;-75
2021/08/13 09:56:29;;;;;;;9.05;6.25;;;;;;;31.21;37.35;100378.25;5082484;28;20216;-75
2021/08/13 09:59:07;;;;;;;12.52;6.88;;;;;;;31.33;36.78;100381.50;5092484;28;20250;-75
2021/08/13 10:01:41;;;;;;;10.77;6.82;;;;;;;31.24;37.31;100388.66;5091972;28;20079;-75
2021/08/13 10:04:07;;;;;;;9.20;6.43;;;;;;;31.08;36.54;100377.75;5081824;28;20045;-75
2021/08/13 10:06:35;;;;;;;10.38;6.32;;;;;;;31.21;36.52;100381.84;5068612;28;20249;-75
2021/08/13 10:09:02;;;;;;;11.50;6.32;;;;;;;31.13;36.90;100369.53;5092904;28;20033;-75
2021/08/13 10:11:27;;;;;;;9.77;6.07;;;;;;;30.84;36.88;100381.44;5082207;28;20029;-75
2021/08/13 10:13:54;;;;;;;13.27;6.63;;;;;;;31.13;36.83;100375.00;5095313;28;20036;-75
2021/08/13 10:16:22;;;;;;;8.55;6.50;;;;;;;31.11;36.45;100363.53;5089710;28;20060;-74
2021/08/13 10:18:51;;;;;;;8.23;6.50;;;;;;;31.17;36.49;100374.47;5084630;28;20195;-75
2021/08/13 10:21:17;;;;;;;8.82;6.22;;;;;;;31.25;35.63;100371.16;5091235;28;20095;-74
2021/08/13 10:23:45;;;;;;;8.80;6.03;;;;;;;31.36;36.02;100372.72;5087203;28;20340;-72
2021/08/13 10:26:11;;;;;;;8.98;6.63;;;;;;;31.49;35.60;100357.56;5086926;28;20243;-72
2021/08/13 10:28:37;;;;;;;9.32;5.93;;;;;;;31.40;36.05;100376.53;5089986;28;20054;-72
2021/08/13 10:31:03;;;;;;;9.30;6.05;;;;;;;31.39;35.74;100367.50;5095011;28;20213;-72
2021/08/13 10:33:29;;;;;;;8.70;5.90;;;;;;;31.20;35.84;100365.69;5084028;28;20032;-77
2021/08/13 10:35:58;;;;;;;8.25;5.88;;;;;;;31.18;34.87;100341.34;5079182;28;20082;-75
2021/08/13 10:38:25;;;;;;;7.05;5.63;;;;;;;31.28;35.29;100368.66;5072877;28;20060;-74
2021/08/13 10:40:51;;;;;;;7.70;5.60;;;;;;;31.24;35.32;100358.56;5085127;28;20036;-75
2021/08/13 10:43:20;;;;;;;11.80;6.00;;;;;;;31.37;34.78;100366.97;5094373;28;20146;-75
2021/08/13 10:45:51;;;;;;;10.13;5.93;;;;;;;31.43;34.61;100360.34;5088248;28;20179;-75
2021/08/13 10:48:24;;;;;;;8.90;5.80;;;;;;;31.29;32.76;100350.34;5094230;28;20042;-74
2021/08/13 10:50:56;;;;;;;8.77;5.88;;;;;;;31.42;33.03;100349.69;5087891;28;20087;-75
2021/08/13 10:53:29;;;;;;;6.85;5.78;;;;;;;31.45;33.57;100357.31;5080071;28;20036;-74
2021/08/13 10:55:55;;;;;;;7.15;5.30;;;;;;;31.55;33.49;100356.44;5096214;28;20020;-75
2021/08/13 10:58:35;;;;;;;8.77;5.63;;;;;;;31.82;33.41;100356.78;5072405;28;20032;-75
2021/08/13 11:01:05;;;;;;;7.10;5.25;;;;;;;31.71;33.24;100344.28;5096998;28;20036;-75
2021/08/13 11:03:31;;;;;;;7.07;5.65;;;;;;;31.83;32.34;100341.16;5084511;28;20040;-75
2021/08/13 11:05:59;;;;;;;7.65;5.38;;;;;;;31.93;32.27;100346.53;5083589;28;20044;-75
2021/08/13 11:08:47;;;;;;;9.13;5.13;;;;;;;31.95;33.05;100336.94;5068743;28;20016;-76
2021/08/13 11:11:14;;;;;;;6.38;5.18;;;;;;;31.79;32.81;100332.69;5090786;28;20044;-77
2021/08/13 11:13:41;;;;;;;11.52;5.22;;;;;;;31.85;32.44;100331.53;5084681;28;20044;-72
2021/08/13 11:16:25;;;;;;;6.10;4.85;;;;;;;31.79;31.87;100331.88;5065956;28;20268;-77